createdAt,value
2023-03-19T00:00:39.096Z,100857.14
2023-03-19T00:03:27.215Z,100858.02
2023-03-19T00:05:55.696Z,100861.67
2023-03-19T00:08:23.860Z,100862.23
2023-03-19T00:10:52.294Z,100864.83
2023-03-19T00:13:20.561Z,100866.05
2023-03-19T00:15:48.862Z,100865.56
2023-03-19T00:18:16.932Z,100866.79
2023-03-19T00:20:45.126Z,100867.33
2023-03-19T00:23:13.396Z,100866.83
2023-03-19T00:25:42.215Z,100869.25
2023-03-19T00:28:10.362Z,100873.43
2023-03-19T00:30:38.518Z,100872.57
2023-03-19T00:33:08.212Z,100871.89
2023-03-19T00:35:39.292Z,100863.24
2023-03-19T00:38:08.007Z,100863.44
2023-03-19T00:40:36.127Z,100861.91
2023-03-19T00:43:04.489Z,100861.77
2023-03-19T00:45:33.009Z,100865.28
2023-03-19T00:48:01.411Z,100867.05
2023-03-19T00:50:29.804Z,100867.76
2023-03-19T00:52:57.938Z,100873.52
2023-03-19T00:55:27.490Z,100872.47
2023-03-19T00:57:56.283Z,100872.63
2023-03-19T01:00:24.537Z,100870.73
2023-03-19T01:02:52.725Z,100865.73
2023-03-19T01:05:21.504Z,100864.34
2023-03-19T01:07:50.949Z,100867.64
2023-03-19T01:10:21.006Z,100869.36
2023-03-19T01:12:49.254Z,100869.20
2023-03-19T01:15:18.362Z,100872.67
2023-03-19T01:17:47.001Z,100876.15
2023-03-19T01:20:18.726Z,100881.21
2023-03-19T01:22:46.838Z,100881.77
2023-03-19T01:25:15.099Z,100879.94
2023-03-19T01:27:52.504Z,100879.45
2023-03-19T01:30:21.830Z,100882.58
2023-03-19T01:33:08.898Z,100883.98
2023-03-19T01:36:10.151Z,100886.77
2023-03-19T01:38:54.546Z,100888.70
2023-03-19T01:41:24.130Z,100885.80
2023-03-19T01:43:53.873Z,100883.77
2023-03-19T01:46:50.498Z,100878.77
2023-03-19T01:49:40.551Z,100877.59
2023-03-19T01:52:21.827Z,100882.11
2023-03-19T01:55:07.613Z,100880.08
2023-03-19T01:58:07.851Z,100886.17
2023-03-19T02:00:57.311Z,100891.73
2023-03-19T02:03:26.896Z,100894.13
2023-03-19T02:06:03.026Z,100894.30
2023-03-19T02:08:32.577Z,100893.10
2023-03-19T02:11:02.181Z,100891.90
2023-03-19T02:13:30.475Z,100891.54
2023-03-19T02:15:58.698Z,100891.67
2023-03-19T02:18:27.413Z,100890.42
2023-03-19T02:21:06.232Z,100888.84
2023-03-19T02:23:42.441Z,100889.86
2023-03-19T02:26:22.004Z,100887.23
2023-03-19T02:28:53.118Z,100886.88
2023-03-19T02:31:25.833Z,100880.10
2023-03-19T02:34:37.583Z,100879.58
2023-03-19T02:37:11.850Z,100882.52
2023-03-19T02:39:50.815Z,100878.03
2023-03-19T02:42:21.248Z,100880.96
2023-03-19T02:44:49.518Z,100878.53
2023-03-19T02:47:18.279Z,100880.26
2023-03-19T02:49:46.899Z,100879.05
2023-03-19T02:52:17.490Z,100876.29
2023-03-19T02:54:46.789Z,100873.34
2023-03-19T02:57:14.913Z,100875.25
2023-03-19T02:59:43.209Z,100876.29
2023-03-19T03:02:11.949Z,100875.90
2023-03-19T03:04:40.309Z,100881.09
2023-03-19T03:07:08.653Z,100882.11
2023-03-19T03:09:36.780Z,100884.19
2023-03-19T03:12:06.213Z,100883.89
2023-03-19T03:14:35.175Z,100887.36
2023-03-19T03:17:03.479Z,100886.14
2023-03-19T03:19:32.221Z,100887.86
2023-03-19T03:22:01.149Z,100888.91
2023-03-19T03:24:30.503Z,100887.71
2023-03-19T03:26:59.016Z,100884.94
2023-03-19T03:29:27.307Z,100887.04
2023-03-19T03:31:55.368Z,100887.23
2023-03-19T03:34:23.466Z,100890.73
2023-03-19T03:36:52.165Z,100888.85
2023-03-19T03:39:20.215Z,100888.17
2023-03-19T03:41:48.267Z,100888.00
2023-03-19T03:44:16.654Z,100889.77
2023-03-19T03:46:45.517Z,100893.10
2023-03-19T03:49:13.937Z,100894.85
2023-03-19T03:51:42.447Z,100895.92
2023-03-19T03:54:10.996Z,100895.62
2023-03-19T03:56:39.066Z,100891.51
2023-03-19T03:59:07.732Z,100892.77
2023-03-19T04:01:36.300Z,100891.58
2023-03-19T04:04:04.973Z,100897.14
2023-03-19T04:06:33.148Z,100899.95
2023-03-19T04:09:21.920Z,100900.71
2023-03-19T04:11:51.557Z,100901.27
2023-03-19T04:14:20.319Z,100897.81
2023-03-19T04:16:48.720Z,100897.29
2023-03-19T04:19:17.011Z,100891.56
2023-03-19T04:21:45.728Z,100891.20
2023-03-19T04:24:14.370Z,100893.42
2023-03-19T04:26:42.719Z,100895.69
2023-03-19T04:29:11.031Z,100891.36
2023-03-19T04:31:39.671Z,100892.91
2023-03-19T04:34:08.078Z,100894.62
2023-03-19T04:36:36.853Z,100899.13
2023-03-19T04:39:06.186Z,100900.52
2023-03-19T04:41:34.919Z,100897.70
2023-03-19T04:44:25.141Z,100900.11
2023-03-19T04:46:54.626Z,100901.55
2023-03-19T04:49:24.571Z,100905.91
2023-03-19T04:51:53.111Z,100904.02
2023-03-19T04:54:21.296Z,100905.63
2023-03-19T04:56:49.708Z,100900.31
2023-03-19T04:59:18.305Z,100899.99
2023-03-19T05:01:46.455Z,100897.21
2023-03-19T05:04:17.985Z,100894.42
2023-03-19T05:06:46.664Z,100895.13
2023-03-19T05:09:14.745Z,100895.52
2023-03-19T05:11:44.431Z,100889.69
2023-03-19T05:14:19.407Z,100887.17
2023-03-19T05:17:08.026Z,100891.36
2023-03-19T05:19:48.770Z,100888.42
2023-03-19T05:22:18.631Z,100890.55
2023-03-19T05:24:47.021Z,100892.45
2023-03-19T05:27:15.778Z,100893.02
2023-03-19T05:30:11.089Z,100891.52
2023-03-19T05:32:58.945Z,100892.96
2023-03-19T05:35:37.831Z,100894.89
2023-03-19T05:38:11.191Z,100897.48
2023-03-19T05:40:42.086Z,100899.55
2023-03-19T05:43:23.570Z,100905.95
2023-03-19T05:45:52.992Z,100906.66
2023-03-19T05:48:24.071Z,100910.29
2023-03-19T05:50:53.061Z,100912.00
2023-03-19T05:53:23.192Z,100912.48
2023-03-19T05:56:23.499Z,100913.01
2023-03-19T05:59:17.235Z,100912.47
2023-03-19T06:01:48.996Z,100915.55
2023-03-19T06:04:17.331Z,100914.98
2023-03-19T06:06:45.473Z,100917.66
2023-03-19T06:09:14.039Z,100920.88
2023-03-19T06:11:44.671Z,100922.70
2023-03-19T06:14:42.030Z,100924.52
2023-03-19T06:17:33.010Z,100923.91
2023-03-19T06:20:04.678Z,100921.96
2023-03-19T06:22:32.837Z,100917.42
2023-03-19T06:25:01.117Z,100918.26
2023-03-19T06:27:30.402Z,100921.87
2023-03-19T06:30:08.138Z,100921.98
2023-03-19T06:32:37.239Z,100923.52
2023-03-19T06:35:11.011Z,100923.98
2023-03-19T06:37:40.562Z,100926.05
2023-03-19T06:40:10.102Z,100926.35
2023-03-19T06:42:38.442Z,100925.26
2023-03-19T06:45:07.749Z,100926.25
2023-03-19T06:47:35.942Z,100929.14
2023-03-19T06:50:04.578Z,100931.02
2023-03-19T06:52:33.031Z,100928.55
2023-03-19T06:55:01.243Z,100933.19
2023-03-19T06:57:29.485Z,100936.78
2023-03-19T06:59:57.762Z,100940.20
2023-03-19T07:02:26.429Z,100939.79
2023-03-19T07:04:54.734Z,100937.13
2023-03-19T07:07:22.883Z,100940.19
2023-03-19T07:09:51.488Z,100948.09
2023-03-19T07:12:19.792Z,100951.83
2023-03-19T07:14:47.994Z,100952.63
2023-03-19T07:17:16.086Z,100957.42
2023-03-19T07:19:44.660Z,100957.52
2023-03-19T07:22:12.999Z,100957.27
2023-03-19T07:24:41.344Z,100959.23
2023-03-19T07:27:09.828Z,100958.27
2023-03-19T07:29:38.484Z,100961.11
2023-03-19T07:32:06.912Z,100960.32
2023-03-19T07:34:35.182Z,100959.50
2023-03-19T07:37:04.097Z,100958.66
2023-03-19T07:39:32.581Z,100957.83
2023-03-19T07:42:00.914Z,100957.01
2023-03-19T07:44:30.696Z,100957.89
2023-03-19T07:46:59.085Z,100962.77
2023-03-19T07:49:27.243Z,100963.84
2023-03-19T07:51:55.698Z,100966.66
2023-03-19T07:54:23.978Z,100970.73
2023-03-19T07:56:52.272Z,100969.89
2023-03-19T07:59:20.422Z,100970.64
2023-03-19T08:01:48.919Z,100970.33
2023-03-19T08:04:17.710Z,100972.64
2023-03-19T08:06:46.163Z,100972.17
2023-03-19T08:09:14.277Z,100971.70
2023-03-19T08:11:42.765Z,100967.02
2023-03-19T08:14:10.885Z,100970.33
2023-03-19T08:16:39.256Z,100972.75
2023-03-19T08:19:08.437Z,100974.13
2023-03-19T08:21:36.506Z,100970.12
2023-03-19T08:24:05.144Z,100969.08
2023-03-19T08:26:33.741Z,100970.15
2023-03-19T08:29:02.049Z,100968.43
2023-03-19T08:31:30.849Z,100966.02
2023-03-19T08:34:04.168Z,100961.66
2023-03-19T08:36:32.604Z,100962.80
2023-03-19T08:39:01.291Z,100959.77
2023-03-19T08:41:29.945Z,100955.75
2023-03-19T08:43:58.322Z,100956.94
2023-03-19T08:46:27.832Z,100953.65
2023-03-19T08:48:56.353Z,100951.48
2023-03-19T08:51:26.167Z,100950.02
2023-03-19T08:53:54.467Z,100948.40
2023-03-19T08:56:22.715Z,100949.11
2023-03-19T08:58:51.093Z,100948.34
2023-03-19T09:01:19.462Z,100946.25
2023-03-19T09:03:48.161Z,100946.89
2023-03-19T09:06:16.727Z,100949.85
2023-03-19T09:08:44.941Z,100949.49
2023-03-19T09:11:14.646Z,100947.71
2023-03-19T09:13:42.795Z,100945.79
2023-03-19T09:16:11.166Z,100947.53
2023-03-19T09:18:39.309Z,100946.61
2023-03-19T09:21:07.726Z,100944.52
2023-03-19T09:23:36.316Z,100947.63
2023-03-19T09:26:04.581Z,100946.77
2023-03-19T09:28:32.730Z,100947.47
2023-03-19T09:31:07.188Z,100947.18
2023-03-19T09:33:35.828Z,100951.61
2023-03-19T09:36:04.546Z,100954.88
2023-03-19T09:38:33.633Z,100958.84
2023-03-19T09:41:09.090Z,100955.37
2023-03-19T09:43:50.720Z,100953.58
2023-03-19T09:46:27.257Z,100951.95
2023-03-19T09:49:01.029Z,100947.54
2023-03-19T09:51:54.927Z,100943.11
2023-03-19T09:54:42.872Z,100941.64
2023-03-19T09:57:13.198Z,100939.30
2023-03-19T09:59:43.332Z,100942.91
2023-03-19T10:02:40.407Z,100939.62
2023-03-19T10:05:18.349Z,100937.89
2023-03-19T10:08:05.147Z,100935.98
2023-03-19T10:10:49.514Z,100939.77
2023-03-19T10:13:50.267Z,100940.23
2023-03-19T10:16:24.364Z,100944.33
2023-03-19T10:18:55.989Z,100945.15
2023-03-19T10:21:30.219Z,100945.98
2023-03-19T10:24:08.092Z,100947.13
2023-03-19T10:26:36.301Z,100947.94
2023-03-19T10:29:11.951Z,100943.21
2023-03-19T10:31:58.326Z,100942.23
2023-03-19T10:34:42.469Z,100944.70
2023-03-19T10:37:13.582Z,100945.53
2023-03-19T10:39:44.788Z,100941.78
2023-03-19T10:42:37.869Z,100937.70
2023-03-19T10:45:24.018Z,100934.02
2023-03-19T10:47:53.050Z,100934.95
2023-03-19T10:50:30.424Z,100929.60
2023-03-19T10:53:18.462Z,100927.59
2023-03-19T10:56:00.921Z,100928.42
2023-03-19T10:58:31.607Z,100930.30
2023-03-19T11:01:19.976Z,100930.16
2023-03-19T11:03:52.541Z,100931.04
2023-03-19T11:06:26.778Z,100928.88
2023-03-19T11:09:07.703Z,100927.35
2023-03-19T11:11:42.832Z,100923.61
2023-03-19T11:14:24.901Z,100923.32
2023-03-19T11:16:59.363Z,100925.59
2023-03-19T11:19:30.862Z,100922.73
2023-03-19T11:22:11.493Z,100923.88
2023-03-19T11:24:42.103Z,100922.09
2023-03-19T11:27:11.666Z,100919.75
2023-03-19T11:29:45.214Z,100920.25
2023-03-19T11:32:33.584Z,100918.09
2023-03-19T11:35:11.249Z,100917.20
2023-03-19T11:37:48.130Z,100918.42
2023-03-19T11:40:46.063Z,100912.16
2023-03-19T11:43:40.656Z,100914.05
2023-03-19T11:46:35.908Z,100909.80
2023-03-19T11:49:25.445Z,100911.80
2023-03-19T11:52:03.410Z,100911.16
2023-03-19T11:54:47.325Z,100915.42
2023-03-19T11:57:43.686Z,100912.67
2023-03-19T12:00:33.291Z,100910.70
2023-03-19T12:03:22.191Z,100907.66
2023-03-19T12:05:58.904Z,100905.30
2023-03-19T12:08:32.947Z,100909.06
2023-03-19T12:11:16.889Z,100903.19
2023-03-19T12:13:51.344Z,100902.23
2023-03-19T12:16:30.558Z,100901.77
2023-03-19T12:19:12.202Z,100897.98
2023-03-19T12:22:09.222Z,100893.69
2023-03-19T12:25:14.962Z,100889.39
2023-03-19T12:28:03.319Z,100885.24
2023-03-19T12:30:57.644Z,100877.32
2023-03-19T12:33:53.997Z,100873.92
2023-03-19T12:36:28.511Z,100875.96
2023-03-19T12:39:05.384Z,100877.56
2023-03-19T12:41:39.280Z,100873.52
2023-03-19T12:44:17.187Z,100867.61
2023-03-19T12:46:59.688Z,100869.17
2023-03-19T12:49:37.998Z,100862.47
2023-03-19T12:52:27.389Z,100859.56
2023-03-19T12:55:04.498Z,100861.55
2023-03-19T12:57:46.869Z,100866.50
2023-03-19T13:00:22.897Z,100862.10
2023-03-19T13:02:58.262Z,100858.31
2023-03-19T13:05:35.456Z,100855.46
2023-03-19T13:08:27.808Z,100854.39
2023-03-19T13:10:59.074Z,100858.85
2023-03-19T13:13:32.119Z,100858.56
2023-03-19T13:16:18.836Z,100854.14
2023-03-19T13:18:58.144Z,100857.45
2023-03-19T13:21:37.914Z,100854.43
2023-03-19T13:24:18.951Z,100854.31
2023-03-19T13:26:49.188Z,100850.52
2023-03-19T13:29:20.077Z,100851.88
2023-03-19T13:31:48.978Z,100861.30
2023-03-19T13:34:17.079Z,100861.99
2023-03-19T13:36:51.849Z,100863.52
2023-03-19T13:39:26.348Z,100866.91
2023-03-19T13:42:08.049Z,100864.65
2023-03-19T13:44:36.527Z,100860.83
2023-03-19T13:47:27.014Z,100860.39
2023-03-19T13:50:16.356Z,100859.36
2023-03-19T13:52:50.768Z,100863.56
2023-03-19T13:55:24.807Z,100859.33
2023-03-19T13:58:12.627Z,100861.77
2023-03-19T14:00:46.937Z,100866.69
2023-03-19T14:03:25.461Z,100864.98
2023-03-19T14:05:56.788Z,100865.04
2023-03-19T14:08:33.639Z,100865.27
2023-03-19T14:11:04.832Z,100865.54
2023-03-19T14:13:42.757Z,100868.27
2023-03-19T14:16:26.445Z,100867.25
2023-03-19T14:19:01.323Z,100868.49
2023-03-19T14:21:46.489Z,100862.58
2023-03-19T14:27:36.187Z,100870.25
2023-03-19T14:30:19.167Z,100871.33
2023-03-19T14:32:49.999Z,100871.43
2023-03-19T14:35:22.690Z,100872.27
2023-03-19T14:37:54.215Z,100871.87
2023-03-19T14:40:26.067Z,100871.02
2023-03-19T14:43:08.345Z,100870.77
2023-03-19T14:45:45.404Z,100868.48
2023-03-19T14:48:38.298Z,100866.75
2023-03-19T14:51:25.508Z,100867.61
2023-03-19T14:53:58.904Z,100866.70
2023-03-19T14:56:35.915Z,100867.20
2023-03-19T14:59:06.181Z,100870.36
2023-03-19T15:01:41.173Z,100876.77
2023-03-19T15:04:12.353Z,100877.34
2023-03-19T15:06:42.991Z,100873.53
2023-03-19T15:09:31.269Z,100871.33
2023-03-19T15:12:34.459Z,100871.39
2023-03-19T15:15:30.905Z,100869.59
2023-03-19T15:18:05.234Z,100868.48
2023-03-19T15:20:37.814Z,100871.19
2023-03-19T15:23:20.055Z,100872.25
2023-03-19T15:26:01.069Z,100869.16
2023-03-19T15:28:45.672Z,100869.96
2023-03-19T15:31:30.911Z,100873.94
2023-03-19T15:34:01.716Z,100875.58
2023-03-19T15:36:33.350Z,100872.56
2023-03-19T15:39:05.170Z,100877.96
2023-03-19T15:41:40.203Z,100878.07
2023-03-19T15:44:16.271Z,100882.52
2023-03-19T15:46:45.934Z,100885.86
2023-03-19T15:49:21.129Z,100888.64
2023-03-19T15:51:53.538Z,100886.69
2023-03-19T15:54:22.649Z,100886.90
2023-03-19T15:56:52.350Z,100886.23
2023-03-19T15:59:25.973Z,100887.59
2023-03-19T16:02:01.139Z,100891.66
2023-03-19T16:04:38.407Z,100892.33
2023-03-19T16:07:23.747Z,100893.32
2023-03-19T16:09:52.106Z,100897.38
2023-03-19T16:12:40.983Z,100896.64
2023-03-19T16:15:43.733Z,100895.27
2023-03-19T16:18:20.914Z,100895.69
2023-03-19T16:20:59.044Z,100896.83
2023-03-19T16:23:51.852Z,100891.39
2023-03-19T16:26:44.588Z,100893.89
2023-03-19T16:29:34.240Z,100893.91
2023-03-19T16:32:11.381Z,100894.09
2023-03-19T16:34:57.136Z,100891.69
2023-03-19T16:37:37.892Z,100894.53
2023-03-19T16:40:12.510Z,100896.41
2023-03-19T16:42:44.870Z,100897.38
2023-03-19T16:45:18.985Z,100902.52
2023-03-19T16:47:50.042Z,100906.70
2023-03-19T16:50:21.845Z,100908.04
2023-03-19T16:52:50.717Z,100906.83
2023-03-19T16:55:23.221Z,100906.25
2023-03-19T16:57:58.078Z,100906.54
2023-03-19T17:00:29.514Z,100903.10
2023-03-19T17:02:59.531Z,100905.30
2023-03-19T17:05:28.834Z,100909.42
2023-03-19T17:07:56.999Z,100909.75
2023-03-19T17:10:27.661Z,100910.65
2023-03-19T17:12:56.753Z,100911.64
2023-03-19T17:15:30.060Z,100914.11
2023-03-19T17:18:00.582Z,100911.64
2023-03-19T17:20:33.367Z,100913.77
2023-03-19T17:23:02.225Z,100913.79
2023-03-19T17:25:30.735Z,100915.54
2023-03-19T17:27:59.016Z,100914.88
2023-03-19T17:30:28.761Z,100921.58
2023-03-19T17:32:57.818Z,100918.78
2023-03-19T17:35:26.374Z,100915.65
2023-03-19T17:37:55.334Z,100918.18
2023-03-19T17:40:27.574Z,100920.83
2023-03-19T17:42:56.434Z,100921.41
2023-03-19T17:45:29.935Z,100923.81
2023-03-19T17:47:58.714Z,100928.63
2023-03-19T17:50:31.471Z,100936.80
2023-03-19T17:53:00.596Z,100940.56
2023-03-19T17:55:30.350Z,100949.16
2023-03-19T17:57:58.469Z,100946.21
2023-03-19T18:00:26.995Z,100929.42
2023-03-19T18:02:57.008Z,100926.95
2023-03-19T18:05:26.259Z,100941.20
2023-03-19T18:07:56.446Z,100952.50
2023-03-19T18:10:29.772Z,100940.62
2023-03-19T18:13:00.166Z,100926.11
2023-03-19T18:15:33.542Z,100924.95
2023-03-19T18:18:04.433Z,100931.36
2023-03-19T18:20:37.955Z,100931.10
2023-03-19T18:23:06.571Z,100923.38
2023-03-19T18:25:35.879Z,100920.02
2023-03-19T18:28:05.173Z,100915.23
2023-03-19T18:30:35.689Z,100921.79
2023-03-19T18:33:08.057Z,100929.41
2023-03-19T18:35:45.595Z,100927.25
2023-03-19T18:38:19.853Z,100923.71
2023-03-19T18:40:49.123Z,100920.49
2023-03-19T18:43:17.674Z,100921.11
2023-03-19T18:45:51.090Z,100920.71
2023-03-19T18:48:27.458Z,100916.83
2023-03-19T18:50:56.572Z,100916.60
2023-03-19T18:53:25.440Z,100912.23
2023-03-19T18:55:53.784Z,100908.92
2023-03-19T18:58:25.712Z,100913.61
2023-03-19T19:00:54.509Z,100912.21
2023-03-19T19:03:29.564Z,100911.86
2023-03-19T19:05:57.769Z,100912.71
2023-03-19T19:08:27.020Z,100905.59
2023-03-19T19:11:03.422Z,100904.28
2023-03-19T19:13:46.182Z,100906.14
2023-03-19T19:16:29.458Z,100911.58
2023-03-19T19:18:58.108Z,100915.76
2023-03-19T19:21:26.645Z,100913.52
2023-03-19T19:23:54.801Z,100912.82
2023-03-19T19:26:26.611Z,100911.21
2023-03-19T19:28:58.399Z,100912.95
2023-03-19T19:31:32.501Z,100911.21
2023-03-19T19:34:00.890Z,100912.05
2023-03-19T19:36:29.448Z,100911.35
2023-03-19T19:38:57.538Z,100912.20
2023-03-19T19:41:27.060Z,100912.02
2023-03-19T19:43:55.984Z,100912.01
2023-03-19T19:46:24.718Z,100916.55
2023-03-19T19:48:52.939Z,100916.11
2023-03-19T19:51:24.180Z,100921.00
2023-03-19T19:53:53.086Z,100924.23
2023-03-19T19:56:24.325Z,100925.42
2023-03-19T19:58:54.313Z,100927.70
2023-03-19T20:01:24.908Z,100927.70
2023-03-19T20:03:53.624Z,100928.16
2023-03-19T20:06:21.981Z,100925.95
2023-03-19T20:08:50.937Z,100925.66
2023-03-19T20:11:22.259Z,100928.64
2023-03-19T20:13:54.577Z,100929.35
2023-03-19T20:16:24.225Z,100925.98
2023-03-19T20:18:54.832Z,100930.86
2023-03-19T20:21:23.382Z,100930.74
2023-03-19T20:23:55.510Z,100932.27
2023-03-19T20:26:24.931Z,100927.29
2023-03-19T20:28:53.113Z,100925.23
2023-03-19T20:31:29.639Z,100925.60
2023-03-19T20:33:57.974Z,100927.20
2023-03-19T20:36:26.898Z,100928.78
2023-03-19T20:38:54.944Z,100925.63
2023-03-19T20:41:27.082Z,100928.30
2023-03-19T20:43:56.520Z,100925.15
2023-03-19T20:46:24.848Z,100929.66
2023-03-19T20:48:53.110Z,100925.05
2023-03-19T20:51:31.742Z,100922.77
2023-03-19T20:53:59.979Z,100918.36
2023-03-19T20:56:28.270Z,100914.66
2023-03-19T20:58:56.549Z,100917.23
2023-03-19T21:01:25.092Z,100928.17
2023-03-19T21:03:53.425Z,100925.73
2023-03-19T21:06:23.955Z,100920.31
2023-03-19T21:08:57.238Z,100916.18
2023-03-19T21:11:39.948Z,100913.00
2023-03-19T21:14:18.611Z,100910.55
2023-03-19T21:16:47.028Z,100907.30
2023-03-19T21:19:16.036Z,100905.60
2023-03-19T21:21:44.160Z,100902.09
2023-03-19T21:24:19.460Z,100902.52
2023-03-19T21:26:47.788Z,100902.15
2023-03-19T21:29:26.296Z,100898.52
2023-03-19T21:31:55.497Z,100899.18
2023-03-19T21:34:23.620Z,100900.61
2023-03-19T21:36:52.123Z,100903.22
2023-03-19T21:39:20.628Z,100903.13
2023-03-19T21:41:48.750Z,100905.10
2023-03-19T21:44:22.190Z,100902.00
2023-03-19T21:46:51.416Z,100895.05
2023-03-19T21:49:20.256Z,100893.84
2023-03-19T21:51:49.791Z,100893.63
2023-03-19T21:54:17.939Z,100894.46
2023-03-19T21:56:46.351Z,100894.41
2023-03-19T21:59:29.427Z,100892.50
2023-03-19T22:01:57.917Z,100889.69
2023-03-19T22:04:26.037Z,100882.88
2023-03-19T22:06:54.146Z,100882.98
2023-03-19T22:09:22.289Z,100883.32
2023-03-19T22:11:51.121Z,100882.61
2023-03-19T22:14:26.897Z,100885.88
2023-03-19T22:16:56.129Z,100893.33
2023-03-19T22:19:24.745Z,100897.30
2023-03-19T22:21:53.591Z,100894.83
2023-03-19T22:24:21.787Z,100897.55
2023-03-19T22:26:56.584Z,100907.14
2023-03-19T22:29:25.673Z,100902.48
2023-03-19T22:31:55.807Z,100895.36
2023-03-19T22:34:27.961Z,100892.95
2023-03-19T22:36:56.230Z,100885.69
2023-03-19T22:39:24.421Z,100882.10
2023-03-19T22:41:52.557Z,100888.20
2023-03-19T22:44:31.576Z,100892.89
2023-03-19T22:47:01.838Z,100893.05
2023-03-19T22:49:31.536Z,100885.18
2023-03-19T22:51:59.750Z,100886.76
2023-03-19T22:54:27.885Z,100879.48
2023-03-19T22:56:56.121Z,100872.04
2023-03-19T22:59:24.266Z,100877.41
2023-03-19T23:01:52.524Z,100879.09
2023-03-19T23:04:32.279Z,100871.50
2023-03-19T23:07:01.408Z,100863.76
2023-03-19T23:09:38.006Z,100860.30
2023-03-19T23:14:36.935Z,100857.09
2023-03-19T23:17:17.519Z,100860.13
2023-03-19T23:19:45.796Z,100857.27
2023-03-19T23:22:16.660Z,100857.90
2023-03-19T23:24:45.073Z,100859.52
2023-03-19T23:27:26.401Z,100859.14
2023-03-19T23:29:55.045Z,100863.89
2023-03-19T23:32:23.338Z,100857.73
2023-03-19T23:34:59.571Z,100856.19
2023-03-19T23:37:29.727Z,100855.71
2023-03-19T23:39:58.006Z,100851.28
2023-03-19T23:42:29.686Z,100850.77
2023-03-19T23:45:01.607Z,100848.20
2023-03-19T23:47:29.977Z,100847.73
2023-03-19T23:49:58.005Z,100849.17
2023-03-19T23:52:26.239Z,100847.18
2023-03-19T23:54:54.296Z,100848.10
2023-03-19T23:57:24.564Z,100840.35
2023-03-19T23:59:53.554Z,100837.73
